Time;durP1;ratioP1;P1;durP2;ratioP2;P2;SDS_P1;SDS_P2;PMS_P1;PMS_P2;Temp;Humidity;BMP_temperature;BMP_pressure;BME280_temperature;BME280_humidity;BME280_pressure;Samples;Min_cycle;Max_cycle;Signal;HPM_P1;HPM_P2
2022/10/28 00:02:15;;;;;;;11.23;1.92;;;18.40;99.90;;;;;;5072533;28;20176;-56
2022/10/28 00:04:41;;;;;;;9.75;1.98;;;18.40;99.90;;;;;;5072321;28;20654;-56
2022/10/28 00:07:07;;;;;;;16.08;2.17;;;18.20;99.90;;;;;;5072204;28;20268;-55
2022/10/28 00:09:33;;;;;;;10.05;2.28;;;;;;;;;;5072275;28;20172;-57
2022/10/28 00:11:58;;;;;;;8.40;1.92;;;18.70;99.90;;;;;;5072116;28;20168;-56
2022/10/28 00:14:24;;;;;;;16.23;2.63;;;;;;;;;;5072093;28;20208;-56
2022/10/28 00:16:50;;;;;;;9.27;2.17;;;18.00;99.90;;;;;;5072086;28;20233;-56
2022/10/28 00:19:16;;;;;;;8.43;2.05;;;18.20;99.90;;;;;;5072070;28;20255;-56
2022/10/28 00:21:43;;;;;;;10.57;2.08;;;17.90;99.90;;;;;;5072136;28;20168;-56
2022/10/28 00:24:10;;;;;;;11.13;2.05;;;18.20;99.90;;;;;;5071946;28;20179;-56
2022/10/28 00:26:40;;;;;;;10.63;2.42;;;17.80;99.90;;;;;;5071941;28;20218;-56
2022/10/28 00:29:14;;;;;;;11.65;2.50;;;18.00;99.90;;;;;;5071886;28;20165;-56
2022/10/28 00:31:40;;;;;;;11.95;1.90;;;17.60;99.90;;;;;;5071961;28;20168;-57
2022/10/28 00:34:08;;;;;;;13.25;2.50;;;17.60;99.90;;;;;;5071795;28;20627;-56
2022/10/28 00:36:36;;;;;;;12.88;2.33;;;17.80;99.90;;;;;;5071619;28;20180;-56
2022/10/28 00:39:08;;;;;;;12.38;2.28;;;17.80;99.90;;;;;;5071500;28;20172;-56
2022/10/28 00:41:36;;;;;;;8.63;2.28;;;;;;;;;;5071170;28;20220;-56
2022/10/28 00:44:39;;;;;;;16.48;2.67;;;17.80;99.90;;;;;;5071648;28;20165;-56
2022/10/28 00:47:15;;;;;;;14.32;2.40;;;17.90;99.90;;;;;;5071569;28;20582;-56
2022/10/28 00:49:43;;;;;;;16.77;2.95;;;17.60;99.90;;;;;;5071378;28;20203;-56
2022/10/28 00:52:17;;;;;;;7.88;1.95;;;17.60;99.90;;;;;;5071466;28;20196;-56
2022/10/28 00:54:44;;;;;;;11.82;2.58;;;17.40;99.90;;;;;;5063714;28;20284;-55
2022/10/28 00:57:14;;;;;;;8.23;2.13;;;17.60;99.90;;;;;;5066180;28;20172;-56
2022/10/28 00:59:45;;;;;;;12.45;2.60;;;17.60;99.90;;;;;;5069346;28;20172;-56
2022/10/28 01:02:11;;;;;;;14.82;2.42;;;;;;;;;;5051353;28;20161;-56
2022/10/28 01:04:38;;;;;;;17.55;2.95;;;17.50;99.90;;;;;;5051562;28;20241;-55
2022/10/28 01:07:04;;;;;;;10.95;2.53;;;17.80;99.90;;;;;;5051486;28;20177;-55
2022/10/28 01:09:30;;;;;;;17.27;3.50;;;;;;;;;;5051385;28;20201;-55
2022/10/28 01:12:13;;;;;;;12.70;2.90;;;17.40;99.90;;;;;;5051166;28;20220;-55
2022/10/28 01:15:14;;;;;;;16.08;2.78;;;17.50;99.90;;;;;;5051045;28;20261;-55
2022/10/28 01:17:40;;;;;;;12.38;2.50;;;;;;;;;;5051334;28;20235;-55
2022/10/28 01:20:23;;;;;;;15.95;2.80;;;17.60;99.90;;;;;;5050976;28;20172;-55
2022/10/28 01:23:16;;;;;;;21.20;2.97;;;17.30;99.90;;;;;;5051027;28;20541;-55
2022/10/28 01:26:08;;;;;;;10.88;2.47;;;17.50;99.90;;;;;;5051122;28;20173;-55
2022/10/28 01:28:48;;;;;;;9.77;2.05;;;17.60;99.90;;;;;;5042497;28;20205;-55
2022/10/28 01:31:19;;;;;;;11.60;2.13;;;17.30;99.90;;;;;;5051118;28;20169;-55
2022/10/28 01:34:03;;;;;;;12.45;1.90;;;17.60;99.90;;;;;;5050882;28;20169;-55
2022/10/28 01:36:37;;;;;;;10.70;2.40;;;17.60;99.90;;;;;;5050860;28;20183;-55
2022/10/28 01:39:03;;;;;;;13.43;2.58;;;;;;;;;;5050910;28;20173;-55
2022/10/28 01:41:44;;;;;;;20.85;2.67;;;17.40;99.90;;;;;;5050765;28;20790;-55
2022/10/28 01:44:20;;;;;;;9.68;2.33;;;17.40;99.90;;;;;;5050827;28;20256;-55
2022/10/28 01:47:00;;;;;;;8.95;2.15;;;17.30;99.90;;;;;;5050699;28;20581;-55
2022/10/28 01:49:41;;;;;;;9.68;1.88;;;17.20;99.90;;;;;;5050788;28;20169;-55
2022/10/28 01:52:12;;;;;;;11.57;2.65;;;17.30;99.90;;;;;;5051856;28;20165;-55
2022/10/28 01:54:40;;;;;;;15.35;3.13;;;17.00;99.90;;;;;;5054840;28;20212;-55
2022/10/28 01:57:07;;;;;;;13.50;2.28;;;17.50;99.90;;;;;;5054830;28;20169;-55
2022/10/28 01:59:34;;;;;;;10.52;2.70;;;17.10;99.90;;;;;;5054903;28;20260;-55
2022/10/28 02:02:00;;;;;;;14.45;2.28;;;;;;;;;;5054715;28;20201;-56
2022/10/28 02:04:26;;;;;;;6.00;2.00;;;;;;;;;;5054646;28;20189;-55
2022/10/28 02:06:54;;;;;;;16.30;2.72;;;15.40;99.90;;;;;;5054569;28;20234;-55
2022/10/28 02:09:31;;;;;;;10.98;2.72;;;17.00;99.90;;;;;;5054657;28;20187;-55
2022/10/28 02:12:25;;;;;;;9.75;2.40;;;17.10;99.90;;;;;;5054513;28;20238;-55
2022/10/28 02:15:09;;;;;;;11.15;2.17;;;16.90;99.90;;;;;;5051565;28;20279;-55
2022/10/28 02:17:52;;;;;;;7.47;1.98;;;17.10;99.90;;;;;;5054378;28;20165;-55
2022/10/28 02:20:48;;;;;;;12.77;3.25;;;17.00;99.90;;;;;;5054289;28;20667;-55
2022/10/28 02:23:38;;;;;;;12.65;2.25;;;16.90;99.90;;;;;;5054240;28;20408;-55
2022/10/28 02:26:15;;;;;;;17.92;2.60;;;16.90;99.90;;;;;;5054309;28;20239;-55
2022/10/28 02:28:47;;;;;;;15.93;2.50;;;16.90;99.90;;;;;;5054315;28;20166;-55
2022/10/28 02:31:24;;;;;;;14.82;2.40;;;16.80;99.90;;;;;;5054152;28;20260;-55
2022/10/28 02:33:57;;;;;;;7.45;2.17;;;16.70;99.90;;;;;;5054021;28;20574;-55
2022/10/28 02:36:27;;;;;;;13.77;2.83;;;17.10;99.90;;;;;;5053993;28;20213;-55
2022/10/28 02:38:55;;;;;;;10.15;2.58;;;17.00;99.90;;;;;;5054120;28;20656;-55
2022/10/28 02:41:54;;;;;;;14.60;1.90;;;17.00;99.90;;;;;;5053970;28;20325;-55
2022/10/28 02:44:27;;;;;;;9.02;2.38;;;17.00;99.90;;;;;;5053832;28;20313;-55
2022/10/28 02:46:57;;;;;;;12.88;2.45;;;16.80;99.90;;;;;;5053883;28;20161;-55
2022/10/28 02:49:25;;;;;;;15.98;2.63;;;17.10;99.90;;;;;;5053843;28;20244;-55
2022/10/28 02:51:56;;;;;;;6.97;1.73;;;18.00;99.90;;;;;;5053722;28;20649;-55
2022/10/28 02:54:54;;;;;;;11.75;2.22;;;17.20;99.90;;;;;;5053598;28;20207;-55
2022/10/28 02:57:26;;;;;;;9.27;2.25;;;17.30;99.90;;;;;;5069080;28;20231;-55
2022/10/28 02:59:57;;;;;;;13.02;2.08;;;17.10;99.90;;;;;;5053657;28;20196;-55
2022/10/28 03:02:23;;;;;;;13.23;2.30;;;17.00;99.90;;;;;;5053241;28;20171;-55
2022/10/28 03:04:49;;;;;;;8.88;2.35;;;17.30;99.90;;;;;;5053362;28;20212;-55
2022/10/28 03:07:15;;;;;;;11.38;2.20;;;17.30;99.90;;;;;;5053555;28;20200;-55
2022/10/28 03:09:41;;;;;;;14.60;2.33;;;;;;;;;;5053684;28;20276;-55
2022/10/28 03:12:07;;;;;;;11.30;1.88;;;;;;;;;;5057142;28;20173;-55
2022/10/28 03:14:33;;;;;;;8.10;1.75;;;17.40;99.90;;;;;;5053310;28;20291;-55
2022/10/28 03:16:59;;;;;;;12.20;2.05;;;;;;;;;;5053360;28;20248;-55
2022/10/28 03:19:25;;;;;;;8.77;2.00;;;17.60;99.90;;;;;;5053268;28;20180;-55
2022/10/28 03:21:51;;;;;;;10.57;2.10;;;17.30;99.90;;;;;;5053154;28;20173;-55
2022/10/28 03:24:16;;;;;;;8.80;1.88;;;17.40;99.90;;;;;;5053132;28;20230;-55
2022/10/28 03:26:42;;;;;;;10.45;1.67;;;17.30;99.90;;;;;;5053202;28;20647;-55
2022/10/28 03:29:08;;;;;;;11.70;2.38;;;;;;;;;;5053138;28;20165;-55
2022/10/28 03:31:34;;;;;;;12.02;1.90;;;;;;;;;;5053148;28;20238;-55
2022/10/28 03:34:00;;;;;;;6.80;1.70;;;;;;;;;;5053033;28;20178;-55
2022/10/28 03:36:26;;;;;;;12.10;2.00;;;17.20;99.90;;;;;;5052735;28;20215;-55
2022/10/28 03:38:51;;;;;;;6.03;1.92;;;17.30;99.90;;;;;;5052904;28;20652;-55
2022/10/28 03:41:17;;;;;;;14.35;2.35;;;17.40;99.90;;;;;;5052392;28;20221;-55
2022/10/28 03:43:43;;;;;;;10.30;1.65;;;;;;;;;;5061377;28;20188;-55
2022/10/28 03:46:09;;;;;;;7.78;1.50;;;17.50;99.90;;;;;;5072786;28;20167;-55
2022/10/28 03:48:35;;;;;;;9.95;1.80;;;;;;;;;;5060986;28;20252;-56
2022/10/28 03:51:01;;;;;;;20.70;2.75;;;;;;;;;;5052631;28;20172;-56
2022/10/28 03:53:27;;;;;;;8.75;1.88;;;;;;;;;;5052511;28;20184;-55
2022/10/28 03:55:57;;;;;;;8.15;1.58;;;;;;;;;;5051327;28;20213;-55
2022/10/28 03:58:24;;;;;;;9.50;2.15;;;17.40;99.90;;;;;;5052699;28;20213;-56
2022/10/28 04:00:51;;;;;;;7.45;1.95;;;17.40;99.90;;;;;;5064397;28;20645;-55
2022/10/28 04:03:18;;;;;;;11.73;1.85;;;17.50;99.90;;;;;;5072490;28;20176;-55
2022/10/28 04:05:44;;;;;;;10.43;2.05;;;17.60;99.90;;;;;;5072436;28;20168;-56
2022/10/28 04:08:10;;;;;;;8.18;2.03;;;17.70;99.90;;;;;;5072316;28;20214;-55
2022/10/28 04:10:36;;;;;;;18.05;2.28;;;17.80;99.90;;;;;;5072342;28;20536;-55
2022/10/28 04:13:04;;;;;;;7.28;1.90;;;17.50;99.90;;;;;;5072190;28;20684;-55
2022/10/28 04:15:30;;;;;;;8.27;2.40;;;17.60;99.90;;;;;;5071290;28;20249;-55
2022/10/28 04:17:56;;;;;;;12.02;2.35;;;;;;;;;;5072167;28;20168;-55
2022/10/28 04:20:22;;;;;;;10.15;2.13;;;17.50;99.90;;;;;;5072127;28;20168;-55
2022/10/28 04:22:48;;;;;;;16.70;2.50;;;17.70;99.90;;;;;;5070758;28;20173;-55
2022/10/28 04:25:14;;;;;;;9.13;2.17;;;;;;;;;;5071897;28;20179;-55
2022/10/28 04:27:40;;;;;;;6.90;1.58;;;17.50;99.90;;;;;;5072372;28;20604;-55
2022/10/28 04:30:06;;;;;;;16.17;2.63;;;;;;;;;;5072457;28;20256;-55
2022/10/28 04:32:32;;;;;;;12.48;2.50;;;17.80;99.90;;;;;;5071757;28;20259;-55
2022/10/28 04:34:58;;;;;;;8.65;2.38;;;;;;;;;;5071641;28;20283;-55
2022/10/28 04:37:24;;;;;;;7.57;2.88;;;;;;;;;;5059259;28;20665;-55
2022/10/28 04:39:49;;;;;;;15.15;2.90;;;17.60;99.90;;;;;;5051770;28;20173;-55
2022/10/28 04:42:15;;;;;;;12.50;2.60;;;;;;;;;;5051540;28;20757;-55
2022/10/28 04:44:41;;;;;;;11.55;2.35;;;17.30;99.90;;;;;;5051662;28;20176;-55
2022/10/28 04:47:07;;;;;;;14.45;3.15;;;;;;;;;;5051566;28;20177;-56
2022/10/28 04:49:33;;;;;;;13.48;3.05;;;;;;;;;;5051594;28;20624;-56
2022/10/28 04:51:59;;;;;;;10.23;2.65;;;;;;;;;;5051604;28;20164;-56
2022/10/28 04:54:26;;;;;;;13.35;2.78;;;;;;;;;;5051351;28;20279;-56
2022/10/28 04:56:53;;;;;;;6.55;2.15;;;;;;;;;;5051474;28;20188;-56
2022/10/28 04:59:19;;;;;;;15.27;2.75;;;;;;;;;;5051432;28;20195;-56
2022/10/28 05:01:45;;;;;;;15.60;3.42;;;;;;;;;;5051304;28;20652;-56
2022/10/28 05:04:11;;;;;;;10.68;2.20;;;;;;;;;;5051313;28;20169;-56
2022/10/28 05:06:38;;;;;;;16.33;3.00;;;16.90;99.90;;;;;;5051265;28;20174;-56
2022/10/28 05:09:04;;;;;;;18.70;3.25;;;;;;;;;;5051338;28;20173;-56
2022/10/28 05:11:30;;;;;;;18.05;2.50;;;17.30;99.90;;;;;;5051358;28;20195;-57
2022/10/28 05:13:56;;;;;;;17.95;3.08;;;;;;;;;;5051178;28;20662;-56
2022/10/28 05:16:21;;;;;;;12.98;3.60;;;17.50;99.90;;;;;;5050946;28;20204;-56
2022/10/28 05:18:47;;;;;;;9.38;2.53;;;17.80;99.90;;;;;;5051069;28;20180;-56
2022/10/28 05:21:13;;;;;;;12.85;2.65;;;;;;;;;;5051064;28;20180;-56
2022/10/28 05:23:39;;;;;;;19.08;2.67;;;17.80;99.90;;;;;;5051036;28;20172;-55
2022/10/28 05:26:05;;;;;;;15.73;2.70;;;;;;;;;;5050882;28;20648;-54
2022/10/28 05:28:31;;;;;;;16.48;2.72;;;17.60;99.90;;;;;;5051015;28;20166;-56
2022/10/28 05:30:57;;;;;;;11.93;2.28;;;;;;;;;;5050967;28;20648;-56
2022/10/28 05:33:22;;;;;;;10.05;2.00;;;18.00;99.90;;;;;;5050989;28;20245;-55
2022/10/28 05:35:48;;;;;;;13.68;2.70;;;18.30;99.90;;;;;;5050824;28;20654;-56
2022/10/28 05:38:14;;;;;;;12.80;2.45;;;;;;;;;;5070134;28;20168;-57
2022/10/28 05:40:40;;;;;;;11.15;2.42;;;18.10;99.90;;;;;;5069262;28;20441;-55
2022/10/28 05:43:08;;;;;;;9.48;1.80;;;;;;;;;;5070915;28;20357;-54
2022/10/28 05:45:33;;;;;;;16.80;2.38;;;18.00;99.90;;;;;;5070611;28;20221;-56
2022/10/28 05:48:00;;;;;;;12.50;1.48;;;;;;;;;;5070920;28;20263;-56
2022/10/28 05:50:25;;;;;;;17.67;2.45;;;17.70;99.90;;;;;;5070737;28;20177;-56
2022/10/28 05:52:55;;;;;;;13.88;2.60;;;17.50;99.90;;;;;;5070729;28;20691;-55
2022/10/28 05:55:22;;;;;;;8.43;1.50;;;17.30;99.90;;;;;;5070702;28;20269;-56
2022/10/28 05:57:49;;;;;;;13.70;2.08;;;17.40;99.90;;;;;;5070544;28;20185;-56
2022/10/28 06:00:17;;;;;;;14.23;2.05;;;17.50;99.90;;;;;;5070633;28;20183;-56
2022/10/28 06:02:43;;;;;;;13.57;2.83;;;17.30;99.90;;;;;;5070523;28;20183;-57
2022/10/28 06:05:10;;;;;;;9.95;2.13;;;17.50;99.90;;;;;;5070556;28;20180;-57
2022/10/28 06:07:36;;;;;;;8.45;2.10;;;17.10;99.90;;;;;;5070672;28;20649;-56
2022/10/28 06:10:02;;;;;;;9.32;1.77;;;;;;;;;;5070582;28;20172;-57
2022/10/28 06:12:28;;;;;;;10.77;1.98;;;;;;;;;;5070458;28;20172;-57
2022/10/28 06:14:54;;;;;;;16.67;2.33;;;;;;;;;;5070747;28;20299;-57
2022/10/28 06:17:21;;;;;;;9.52;2.22;;;16.80;99.90;;;;;;5070537;28;20598;-57
2022/10/28 06:19:47;;;;;;;17.05;1.83;;;;;;;;;;5086038;28;20271;-57
2022/10/28 06:22:12;;;;;;;12.25;1.58;;;16.50;99.90;;;;;;5070460;28;20179;-57
2022/10/28 06:24:38;;;;;;;8.70;1.52;;;16.30;99.90;;;;;;5070469;28;20161;-58
2022/10/28 06:27:04;;;;;;;9.27;1.65;;;16.40;99.90;;;;;;5070341;28;20180;-57
2022/10/28 06:29:31;;;;;;;9.80;1.50;;;16.40;99.90;;;;;;5070214;28;20180;-57
2022/10/28 06:31:57;;;;;;;6.82;1.08;;;;;;;;;;5070496;28;20218;-57
2022/10/28 06:34:23;;;;;;;8.77;0.98;;;;;;;;;;5070237;28;20173;-57
2022/10/28 06:36:49;;;;;;;9.60;1.27;;;16.30;99.90;;;;;;5062554;28;20181;-57
2022/10/28 06:39:15;;;;;;;5.95;1.05;;;;;;;;;;5053041;28;20175;-57
2022/10/28 06:41:41;;;;;;;4.07;1.00;;;;;;;;;;5053769;28;20228;-57
2022/10/28 06:44:07;;;;;;;7.57;1.05;;;15.90;99.90;;;;;;5054247;28;20169;-57
2022/10/28 06:46:33;;;;;;;7.32;1.00;;;15.70;99.90;;;;;;5054021;28;20185;-57
2022/10/28 06:49:01;;;;;;;9.77;1.25;;;16.00;99.90;;;;;;5053877;28;20634;-57
2022/10/28 06:51:28;;;;;;;5.07;0.90;;;;;;;;;;5053865;28;20161;-57
2022/10/28 06:53:53;;;;;;;5.70;1.02;;;15.90;99.90;;;;;;5053760;28;20174;-57
2022/10/28 06:56:19;;;;;;;6.53;1.27;;;15.80;99.90;;;;;;5053518;28;20216;-56
2022/10/28 06:58:49;;;;;;;4.00;1.02;;;15.70;99.90;;;;;;5053609;28;20659;-57
2022/10/28 07:01:15;;;;;;;6.35;1.05;;;;;;;;;;5069033;28;20272;-56
2022/10/28 07:03:41;;;;;;;4.93;0.90;;;;;;;;;;5053707;28;20381;-57
2022/10/28 07:06:07;;;;;;;6.68;0.95;;;15.60;99.90;;;;;;5053650;28;20181;-56
2022/10/28 07:08:33;;;;;;;5.82;0.70;;;15.70;99.90;;;;;;5053478;28;20248;-56
2022/10/28 07:10:59;;;;;;;4.70;0.73;;;15.90;99.90;;;;;;5053306;28;20174;-55
2022/10/28 07:13:26;;;;;;;4.72;0.88;;;15.60;99.90;;;;;;5053552;28;20169;-56
2022/10/28 07:15:56;;;;;;;5.13;0.95;;;15.80;99.90;;;;;;5053193;28;20205;-56
2022/10/28 07:18:23;;;;;;;9.98;0.93;;;15.70;99.90;;;;;;5053252;28;20227;-56
2022/10/28 07:20:49;;;;;;;8.60;1.02;;;15.70;99.90;;;;;;5053167;28;20177;-56
2022/10/28 07:23:16;;;;;;;10.85;1.35;;;15.70;99.90;;;;;;5052892;28;20173;-56
2022/10/28 07:25:42;;;;;;;7.57;0.80;;;15.80;99.90;;;;;;5053146;28;20166;-56
2022/10/28 07:28:08;;;;;;;5.75;1.17;;;;;;;;;;5052992;28;20188;-56
2022/10/28 07:30:34;;;;;;;6.95;1.10;;;15.90;99.90;;;;;;5053182;28;20201;-55
2022/10/28 07:33:00;;;;;;;7.30;0.65;;;16.00;99.90;;;;;;5052994;28;20208;-56
2022/10/28 07:35:29;;;;;;;6.30;1.20;;;15.90;99.90;;;;;;5052729;28;20204;-56
2022/10/28 07:37:56;;;;;;;9.73;0.80;;;15.90;99.90;;;;;;5069894;28;20184;-56
2022/10/28 07:40:23;;;;;;;3.67;0.93;;;15.90;99.90;;;;;;5072542;28;20259;-56
2022/10/28 07:42:49;;;;;;;7.05;0.88;;;16.00;99.90;;;;;;5072572;28;20161;-56
2022/10/28 07:45:16;;;;;;;3.97;0.77;;;15.80;99.90;;;;;;5072699;28;20169;-55
2022/10/28 07:47:42;;;;;;;5.78;0.75;;;15.90;99.90;;;;;;5072627;28;20160;-55
2022/10/28 07:50:09;;;;;;;8.40;0.77;;;15.90;99.90;;;;;;5072545;28;20181;-55
2022/10/28 07:52:35;;;;;;;6.30;0.70;;;15.70;99.90;;;;;;5072473;28;20251;-56
2022/10/28 07:55:03;;;;;;;9.80;1.00;;;15.70;99.90;;;;;;5072416;28;20244;-55
2022/10/28 07:57:29;;;;;;;6.25;0.60;;;;;;;;;;5072424;28;20173;-55
2022/10/28 07:59:55;;;;;;;7.45;0.90;;;;;;;;;;5072297;28;20169;-55
2022/10/28 08:02:23;;;;;;;4.45;0.85;;;15.70;99.90;;;;;;5072334;28;20167;-56
2022/10/28 08:04:49;;;;;;;7.70;1.10;;;15.50;99.90;;;;;;5072307;28;20192;-56
2022/10/28 08:07:15;;;;;;;7.57;0.98;;;;;;;;;;5072257;28;20214;-55
2022/10/28 08:09:42;;;;;;;7.15;1.10;;;;;;;;;;5072058;28;20187;-56
2022/10/28 08:12:10;;;;;;;4.07;0.82;;;15.30;99.90;;;;;;5072010;28;20192;-56
2022/10/28 08:14:36;;;;;;;7.20;0.80;;;;;;;;;;5072037;28;20701;-56
2022/10/28 08:17:02;;;;;;;13.27;1.83;;;15.20;99.90;;;;;;5072167;28;20172;-56
2022/10/28 08:19:27;;;;;;;6.50;1.58;;;15.20;99.90;;;;;;5072005;28;20214;-56
2022/10/28 08:21:53;;;;;;;5.40;0.82;;;;;;;;;;5071882;28;20259;-56
2022/10/28 08:24:19;;;;;;;5.80;1.17;;;;;;;;;;5071975;28;20180;-56
2022/10/28 08:26:45;;;;;;;8.00;0.68;;;15.20;99.90;;;;;;5071820;28;20183;-56
2022/10/28 08:29:11;;;;;;;4.85;0.70;;;;;;;;;;5071746;28;20173;-56
2022/10/28 08:31:37;;;;;;;8.23;1.10;;;15.30;99.90;;;;;;5071694;28;20208;-56
2022/10/28 08:34:04;;;;;;;7.65;0.77;;;15.20;99.90;;;;;;5071575;28;20639;-57
2022/10/28 08:36:30;;;;;;;10.98;1.42;;;15.40;99.90;;;;;;5071510;28;20743;-56
2022/10/28 08:38:59;;;;;;;15.15;1.45;;;;;;;;;;5071664;28;20164;-56
2022/10/28 08:41:30;;;;;;;6.00;0.88;;;15.40;99.90;;;;;;5071386;28;20218;-57
2022/10/28 08:44:50;;;;;;;4.03;0.90;;;15.70;99.90;;;;;;5071568;28;20628;-56
2022/10/28 08:47:22;;;;;;;12.15;0.90;;;15.50;99.90;;;;;;5069271;28;20318;-56
2022/10/28 08:49:55;;;;;;;7.15;1.02;;;15.60;99.90;;;;;;5071126;28;20200;-56
2022/10/28 08:52:21;;;;;;;6.10;0.88;;;;;;;;;;5071422;28;20191;-56
2022/10/28 08:54:56;;;;;;;4.75;0.80;;;15.60;99.90;;;;;;5071257;28;20250;-56
2022/10/28 08:57:39;;;;;;;6.28;0.93;;;15.60;99.90;;;;;;5071304;28;20172;-57
2022/10/28 09:00:12;;;;;;;10.18;1.17;;;15.80;99.90;;;;;;5071133;28;20173;-56
2022/10/28 09:03:12;;;;;;;5.65;1.13;;;15.60;99.90;;;;;;5070965;28;20172;-56
2022/10/28 09:05:40;;;;;;;6.57;0.90;;;15.50;99.90;;;;;;5070429;28;20188;-56
2022/10/28 09:08:12;;;;;;;5.78;1.08;;;15.50;99.90;;;;;;5071028;28;20230;-56
2022/10/28 09:10:51;;;;;;;4.18;0.90;;;15.50;99.90;;;;;;5071068;28;20164;-56
2022/10/28 09:13:48;;;;;;;8.63;1.30;;;15.70;99.90;;;;;;5071083;28;20222;-56
2022/10/28 09:16:33;;;;;;;6.38;1.13;;;15.80;99.90;;;;;;5071014;28;20200;-56
2022/10/28 09:19:13;;;;;;;6.80;0.95;;;15.50;99.90;;;;;;5071001;28;20173;-56
2022/10/28 09:21:51;;;;;;;5.05;0.77;;;15.20;99.90;;;;;;5070902;28;20160;-56
2022/10/28 09:24:34;;;;;;;7.57;1.25;;;15.80;99.90;;;;;;5070713;28;20168;-57
2022/10/28 09:27:37;;;;;;;7.57;1.10;;;15.90;99.90;;;;;;5070812;28;20195;-56
2022/10/28 09:30:39;;;;;;;11.13;1.17;;;15.80;99.90;;;;;;5070948;28;20293;-56
2022/10/28 09:33:20;;;;;;;5.28;0.93;;;15.90;99.90;;;;;;5070830;28;20710;-56
2022/10/28 09:35:47;;;;;;;7.60;0.77;;;15.80;99.90;;;;;;5070811;28;20282;-56
2022/10/28 09:38:36;;;;;;;8.70;1.17;;;16.30;99.90;;;;;;5070721;28;20567;-56
2022/10/28 09:41:18;;;;;;;7.68;1.00;;;16.30;99.90;;;;;;5070574;28;20211;-55
2022/10/28 09:44:19;;;;;;;13.88;1.20;;;16.40;99.90;;;;;;5070552;28;20218;-54
2022/10/28 09:46:49;;;;;;;3.47;1.10;;;16.60;99.90;;;;;;5068187;28;20171;-55
2022/10/28 09:49:25;;;;;;;7.93;0.85;;;16.80;99.90;;;;;;5070405;28;20180;-55
2022/10/28 09:52:07;;;;;;;6.35;0.80;;;16.80;99.90;;;;;;5070941;28;20172;-55
2022/10/28 09:54:36;;;;;;;4.40;1.10;;;17.10;99.90;;;;;;5070545;28;20536;-55
2022/10/28 09:57:03;;;;;;;6.90;1.52;;;16.90;99.90;;;;;;5070507;28;20172;-55
2022/10/28 09:59:29;;;;;;;5.22;1.02;;;17.40;99.90;;;;;;5070635;28;20180;-56
2022/10/28 10:01:55;;;;;;;3.58;0.85;;;15.70;99.90;;;;;;5070519;28;20176;-56
2022/10/28 10:04:23;;;;;;;5.00;0.85;;;17.20;99.90;;;;;;5069173;28;20176;-56
2022/10/28 10:07:11;;;;;;;5.80;0.95;;;17.20;99.90;;;;;;5070435;28;20167;-56
2022/10/28 10:09:38;;;;;;;7.38;0.93;;;17.00;99.90;;;;;;5070064;28;20188;-56
2022/10/28 10:12:09;;;;;;;4.95;0.85;;;17.30;99.90;;;;;;5070339;28;20172;-56
2022/10/28 10:14:41;;;;;;;4.55;1.15;;;17.30;99.90;;;;;;5073798;28;20176;-56
2022/10/28 10:17:23;;;;;;;4.22;0.50;;;17.40;99.90;;;;;;5074489;28;20639;-56
2022/10/28 10:20:11;;;;;;;7.43;1.20;;;17.40;99.90;;;;;;5074216;28;20171;-55
2022/10/28 10:22:43;;;;;;;8.68;1.10;;;17.40;99.90;;;;;;5060927;28;20206;-56
2022/10/28 10:25:17;;;;;;;9.63;1.10;;;17.40;99.90;;;;;;5054181;28;20181;-55
2022/10/28 10:28:12;;;;;;;9.15;0.95;;;17.30;99.90;;;;;;5062617;28;20160;-56
2022/10/28 10:30:48;;;;;;;8.07;1.08;;;17.60;99.90;;;;;;5074097;28;20165;-57
2022/10/28 10:33:21;;;;;;;5.65;1.27;;;16.00;99.90;;;;;;5074056;28;20259;-56
2022/10/28 10:36:10;;;;;;;11.73;1.30;;;17.70;99.90;;;;;;5074142;28;20238;-56
2022/10/28 10:38:37;;;;;;;11.00;1.55;;;17.80;99.90;;;;;;5076346;28;20588;-56
2022/10/28 10:41:03;;;;;;;7.93;1.40;;;17.70;99.90;;;;;;5073660;28;20216;-55
2022/10/28 10:43:32;;;;;;;8.00;1.10;;;17.90;99.90;;;;;;5073669;28;20260;-55
2022/10/28 10:46:02;;;;;;;9.93;1.88;;;18.20;99.90;;;;;;5073787;28;20179;-55
2022/10/28 10:48:31;;;;;;;8.70;1.50;;;18.70;99.90;;;;;;5073664;28;20207;-55
2022/10/28 10:50:57;;;;;;;8.80;1.30;;;18.70;99.90;;;;;;5073618;28;20207;-55
2022/10/28 10:53:30;;;;;;;10.25;1.52;;;;;;;;;;5073655;28;20271;-55
2022/10/28 10:56:02;;;;;;;9.35;1.80;;;19.50;99.90;;;;;;5073333;28;20231;-56
2022/10/28 10:58:32;;;;;;;11.00;1.40;;;20.20;99.90;;;;;;5073466;28;20165;-56
2022/10/28 11:01:00;;;;;;;13.68;1.60;;;20.30;99.90;;;;;;5073279;28;20180;-56
2022/10/28 11:03:28;;;;;;;9.10;1.48;;;20.20;99.90;;;;;;5073537;28;20181;-55
2022/10/28 11:05:56;;;;;;;5.40;1.10;;;20.50;99.90;;;;;;5073365;28;20172;-56
2022/10/28 11:08:33;;;;;;;11.73;1.85;;;;;;;;;;5073182;28;20176;-56
2022/10/28 11:11:19;;;;;;;8.15;1.65;;;23.10;99.90;;;;;;5071926;28;20184;-55
2022/10/28 11:13:46;;;;;;;8.13;1.33;;;23.10;99.90;;;;;;5073534;28;20196;-55
2022/10/28 11:16:23;;;;;;;7.75;1.52;;;22.90;99.90;;;;;;5066446;28;20557;-55
2022/10/28 11:18:51;;;;;;;9.23;1.23;;;23.40;99.90;;;;;;5053114;28;20213;-55
2022/10/28 11:21:32;;;;;;;7.35;1.30;;;24.80;99.90;;;;;;5053173;28;20173;-55
2022/10/28 11:24:12;;;;;;;10.13;2.03;;;25.80;99.90;;;;;;5052408;28;20173;-55
2022/10/28 11:27:10;;;;;;;8.27;1.45;;;26.70;99.90;;;;;;5052799;28;20686;-55
2022/10/28 11:29:36;;;;;;;8.60;1.48;;;25.00;99.90;;;;;;5052811;28;20644;-55
2022/10/28 11:32:13;;;;;;;7.60;1.10;;;25.70;99.90;;;;;;5052860;28;20175;-55
2022/10/28 11:34:50;;;;;;;9.77;1.20;;;25.50;99.90;;;;;;5052745;28;20253;-55
2022/10/28 11:37:48;;;;;;;5.55;1.17;;;25.80;99.90;;;;;;5052607;28;20173;-55
2022/10/28 11:40:26;;;;;;;5.43;0.70;;;25.70;99.90;;;;;;5052628;28;20797;-55
2022/10/28 11:43:30;;;;;;;4.78;1.38;;;27.00;99.90;;;;;;5052558;28;20169;-55
2022/10/28 11:46:23;;;;;;;7.93;2.22;;;26.50;99.90;;;;;;5051211;28;20209;-55
2022/10/28 11:49:12;;;;;;;8.75;2.05;;;26.90;99.90;;;;;;5041119;28;20218;-55
2022/10/28 11:52:36;;;;;;;39.22;20.25;;;24.70;99.90;;;;;;5052335;28;20647;-55
2022/10/28 11:55:24;;;;;;;18.90;5.00;;;23.40;99.90;;;;;;5021074;28;20225;-55
2022/10/28 11:58:17;;;;;;;6.80;2.78;;;26.10;99.90;;;;;;5052288;28;20166;-55
2022/10/28 12:01:09;;;;;;;10.88;2.28;;;28.10;99.90;;;;;;5052137;28;20220;-55
2022/10/28 12:04:03;;;;;;;19.20;7.85;;;25.60;99.90;;;;;;5047979;28;20263;-55
2022/10/28 12:06:48;;;;;;;6.97;2.63;;;23.60;99.90;;;;;;5042665;28;20185;-55
2022/10/28 12:09:25;;;;;;;10.60;1.90;;;21.20;99.90;;;;;;5051968;28;20177;-55
2022/10/28 12:12:38;;;;;;;4.65;1.40;;;20.20;99.90;;;;;;5052260;28;20271;-55
2022/10/28 12:15:39;;;;;;;4.40;1.02;;;19.10;99.90;;;;;;5051892;28;20675;-55
2022/10/28 12:18:37;;;;;;;12.20;1.45;;;18.80;99.90;;;;;;5052067;28;20177;-55
2022/10/28 12:21:12;;;;;;;9.55;1.42;;;22.40;99.90;;;;;;5051319;28;20246;-55
2022/10/28 12:23:40;;;;;;;8.43;0.95;;;20.20;99.90;;;;;;5052007;28;20183;-55
2022/10/28 12:26:09;;;;;;;9.63;1.23;;;20.70;99.90;;;;;;5051814;28;20173;-55
2022/10/28 12:28:52;;;;;;;4.82;1.30;;;22.00;99.90;;;;;;5051866;28;20703;-55
2022/10/28 12:31:33;;;;;;;11.65;1.00;;;22.10;99.90;;;;;;5051794;28;20267;-55
2022/10/28 12:34:04;;;;;;;4.05;1.10;;;21.10;99.90;;;;;;5051645;28;20237;-55
2022/10/28 12:36:55;;;;;;;8.38;1.33;;;21.70;99.90;;;;;;5050790;28;20201;-55
2022/10/28 12:39:37;;;;;;;5.65;1.20;;;20.70;99.90;;;;;;5051743;28;20181;-55
2022/10/28 12:42:03;;;;;;;5.57;0.80;;;;;;;;;;5051275;28;20231;-55
2022/10/28 12:44:29;;;;;;;4.35;1.02;;;;;;;;;;5051513;28;20204;-55
2022/10/28 12:47:16;;;;;;;8.20;1.20;;;20.20;99.90;;;;;;5051719;28;20256;-55
2022/10/28 12:50:07;;;;;;;4.15;0.85;;;20.10;99.90;;;;;;5051691;28;20227;-55
2022/10/28 12:52:47;;;;;;;4.45;1.25;;;20.20;99.90;;;;;;5051348;28;20199;-55
2022/10/28 12:55:13;;;;;;;8.30;1.08;;;;;;;;;;5051303;28;20762;-55
2022/10/28 12:58:00;;;;;;;7.10;0.80;;;20.40;99.90;;;;;;5051388;28;20252;-56
2022/10/28 13:00:31;;;;;;;7.35;0.95;;;20.90;99.90;;;;;;5051233;28;20179;-55
2022/10/28 13:03:06;;;;;;;10.23;1.83;;;20.90;99.90;;;;;;5049740;28;20173;-55
2022/10/28 13:05:43;;;;;;;13.00;1.48;;;21.30;99.90;;;;;;5051076;28;20176;-55
2022/10/28 13:08:25;;;;;;;7.90;1.27;;;21.10;99.90;;;;;;5051075;28;20690;-55
2022/10/28 13:11:02;;;;;;;7.28;0.98;;;21.20;99.90;;;;;;5051008;28;20697;-55
2022/10/28 13:13:48;;;;;;;4.60;0.88;;;20.20;99.90;;;;;;5051536;28;20169;-55
2022/10/28 13:16:35;;;;;;;6.85;1.20;;;21.40;99.90;;;;;;5057601;28;20270;-55
2022/10/28 13:19:03;;;;;;;9.63;0.95;;;20.00;99.90;;;;;;5071005;28;20172;-55
2022/10/28 13:21:48;;;;;;;4.45;0.95;;;20.40;99.90;;;;;;5070996;28;20201;-55
2022/10/28 13:24:26;;;;;;;4.97;1.15;;;19.70;99.90;;;;;;5071010;28;20657;-55
2022/10/28 13:26:53;;;;;;;4.63;1.00;;;;;;;;;;5070905;28;20212;-55
2022/10/28 13:29:25;;;;;;;6.97;0.93;;;19.50;99.90;;;;;;5070945;28;20251;-55
2022/10/28 13:31:52;;;;;;;7.35;1.02;;;19.80;99.90;;;;;;5070941;28;20168;-55
2022/10/28 13:34:21;;;;;;;10.68;1.02;;;21.30;99.90;;;;;;5070542;28;20175;-55